createdAt,value
2019-05-26T00:00:39.841Z,12.20
2019-05-26T00:03:08.280Z,12.30
2019-05-26T00:05:36.711Z,12.40
2019-05-26T00:08:05.157Z,12.30
2019-05-26T00:10:33.591Z,12.30
2019-05-26T00:13:02.361Z,12.30
2019-05-26T00:15:30.781Z,12.30
2019-05-26T00:17:59.235Z,12.20
2019-05-26T00:20:28.000Z,12.10
2019-05-26T00:22:56.452Z,12.00
2019-05-26T00:25:24.891Z,12.00
2019-05-26T00:27:53.338Z,11.90
2019-05-26T00:30:21.966Z,11.90
2019-05-26T00:32:50.408Z,11.90
2019-05-26T00:35:18.844Z,11.90
2019-05-26T00:37:49.844Z,11.80
2019-05-26T00:40:17.816Z,11.80
2019-05-26T00:42:46.261Z,11.80
2019-05-26T00:45:15.137Z,11.80
2019-05-26T00:47:43.593Z,11.70
2019-05-26T00:50:12.257Z,11.70
2019-05-26T00:52:40.767Z,11.70
2019-05-26T00:55:09.633Z,11.60
2019-05-26T00:57:38.501Z,11.60
2019-05-26T01:00:09.063Z,11.70
2019-05-26T01:02:37.819Z,11.80
2019-05-26T01:05:08.010Z,11.70
2019-05-26T01:07:37.561Z,11.70
2019-05-26T01:10:07.737Z,11.60
2019-05-26T01:12:36.193Z,11.60
2019-05-26T01:15:06.264Z,11.30
2019-05-26T01:17:34.718Z,11.30
2019-05-26T01:20:03.464Z,11.30
2019-05-26T01:22:32.032Z,11.40
2019-05-26T01:25:00.480Z,11.40
2019-05-26T01:27:31.635Z,11.20
2019-05-26T01:30:00.434Z,11.20
2019-05-26T01:32:28.869Z,11.20
2019-05-26T01:34:57.591Z,11.20
2019-05-26T01:37:26.488Z,11.20
2019-05-26T01:39:55.100Z,11.00
2019-05-26T01:42:23.580Z,10.90
2019-05-26T01:44:52.288Z,10.90
2019-05-26T01:47:20.979Z,11.00
2019-05-26T01:49:49.693Z,11.00
2019-05-26T01:52:18.140Z,11.00
2019-05-26T01:54:46.844Z,10.80
2019-05-26T01:57:15.529Z,10.70
2019-05-26T01:59:44.255Z,10.80
2019-05-26T02:02:12.700Z,11.00
2019-05-26T02:04:41.422Z,11.00
2019-05-26T02:07:10.200Z,11.00
2019-05-26T02:09:38.907Z,11.00
2019-05-26T02:12:07.491Z,11.00
2019-05-26T02:14:35.965Z,11.00
2019-05-26T02:17:04.951Z,11.10
2019-05-26T02:19:33.657Z,11.00
2019-05-26T02:22:02.444Z,11.10
2019-05-26T02:24:30.973Z,11.10
2019-05-26T02:26:59.698Z,11.00
2019-05-26T02:29:28.159Z,11.00
2019-05-26T02:31:56.925Z,10.90
2019-05-26T02:34:25.374Z,10.90
2019-05-26T02:36:53.811Z,10.90
2019-05-26T02:39:22.256Z,10.90
2019-05-26T02:41:50.800Z,11.10
2019-05-26T02:44:19.316Z,11.10
2019-05-26T02:46:48.001Z,11.10
2019-05-26T02:49:16.711Z,11.10
2019-05-26T02:51:45.154Z,11.00
2019-05-26T02:54:13.967Z,11.00
2019-05-26T02:56:42.751Z,10.90
2019-05-26T02:59:11.208Z,10.70
2019-05-26T03:01:58.260Z,10.60
2019-05-26T03:04:10.931Z,10.70
2019-05-26T03:06:41.170Z,10.70
2019-05-26T03:09:22.145Z,10.70
2019-05-26T03:11:42.805Z,10.90
2019-05-26T03:14:12.306Z,11.20
2019-05-26T03:16:43.507Z,11.20
2019-05-26T03:19:14.711Z,11.40
2019-05-26T03:21:44.815Z,11.50
2019-05-26T03:24:16.688Z,11.40
2019-05-26T03:26:45.307Z,11.40
2019-05-26T03:29:14.001Z,11.40
2019-05-26T03:31:42.460Z,11.60
2019-05-26T03:34:10.891Z,11.70
2019-05-26T03:36:39.348Z,11.70
2019-05-26T03:39:08.168Z,11.70
2019-05-26T03:41:36.616Z,11.80
2019-05-26T03:44:05.136Z,11.70
2019-05-26T03:46:33.588Z,11.60
2019-05-26T03:49:02.027Z,11.60
2019-05-26T03:51:30.491Z,11.70
2019-05-26T03:53:58.943Z,11.70
2019-05-26T03:56:27.381Z,11.70
2019-05-26T03:58:56.652Z,11.70
2019-05-26T04:01:25.097Z,11.70
2019-05-26T04:03:54.433Z,11.60
2019-05-26T04:06:22.896Z,11.60
2019-05-26T04:08:51.429Z,11.70
2019-05-26T04:11:19.937Z,11.50
2019-05-26T04:13:48.382Z,11.40
2019-05-26T04:16:16.840Z,11.50
2019-05-26T04:18:45.295Z,11.50
2019-05-26T04:21:14.108Z,11.50
2019-05-26T04:23:42.544Z,11.70
2019-05-26T04:26:11.002Z,11.70
2019-05-26T04:28:39.449Z,11.70
2019-05-26T04:31:07.917Z,11.80
2019-05-26T04:33:36.355Z,11.90
2019-05-26T04:36:04.943Z,11.90
2019-05-26T04:38:33.394Z,11.80
2019-05-26T04:41:01.855Z,11.70
2019-05-26T04:43:30.639Z,11.80
2019-05-26T04:45:59.435Z,11.80
2019-05-26T04:48:27.890Z,11.80
2019-05-26T04:50:56.396Z,11.70
2019-05-26T04:53:25.280Z,11.70
2019-05-26T04:55:54.069Z,11.70
2019-05-26T04:58:22.853Z,11.90
2019-05-26T05:00:51.654Z,11.90
2019-05-26T05:03:20.541Z,12.00
2019-05-26T05:05:48.978Z,11.80
2019-05-26T05:08:17.436Z,11.90
2019-05-26T05:10:45.877Z,12.00
2019-05-26T05:13:14.660Z,12.00
2019-05-26T05:15:43.106Z,12.20
2019-05-26T05:18:11.830Z,12.40
2019-05-26T05:20:40.711Z,12.50
2019-05-26T05:23:09.201Z,12.70
2019-05-26T05:25:37.642Z,12.70
2019-05-26T05:28:06.103Z,12.70
2019-05-26T05:30:34.540Z,12.60
2019-05-26T05:33:03.017Z,12.70
2019-05-26T05:35:31.455Z,12.80
2019-05-26T05:38:00.198Z,12.70
2019-05-26T05:40:28.646Z,12.80
2019-05-26T05:42:57.460Z,12.80
2019-05-26T05:45:26.254Z,12.80
2019-05-26T05:47:55.150Z,12.90
2019-05-26T05:50:23.926Z,13.00
2019-05-26T05:52:52.822Z,13.00
2019-05-26T05:55:21.660Z,13.10
2019-05-26T05:57:50.178Z,13.20
2019-05-26T06:00:19.433Z,13.10
2019-05-26T06:02:48.194Z,13.10
2019-05-26T06:05:17.073Z,12.90
2019-05-26T06:07:45.621Z,12.90
2019-05-26T06:10:14.433Z,13.00
2019-05-26T06:12:42.886Z,13.10
2019-05-26T06:15:12.934Z,13.30
2019-05-26T06:17:42.551Z,13.30
2019-05-26T06:20:11.164Z,13.30
2019-05-26T06:22:39.609Z,13.30
2019-05-26T06:25:08.609Z,13.20
2019-05-26T06:27:37.119Z,13.30
2019-05-26T06:30:07.817Z,13.50
2019-05-26T06:32:36.264Z,13.50
2019-05-26T06:35:05.869Z,13.60
2019-05-26T06:37:34.577Z,13.60
2019-05-26T06:40:03.607Z,13.70
2019-05-26T06:42:32.078Z,13.90
2019-05-26T06:45:00.860Z,13.80
2019-05-26T06:47:29.290Z,13.80
2019-05-26T06:49:57.754Z,13.80
2019-05-26T06:52:26.514Z,13.80
2019-05-26T06:54:54.979Z,13.90
2019-05-26T06:57:23.468Z,14.00
2019-05-26T06:59:52.033Z,14.20
2019-05-26T07:02:20.550Z,14.20
2019-05-26T07:04:49.008Z,14.20
2019-05-26T07:07:17.454Z,14.30
2019-05-26T07:09:45.981Z,14.20
2019-05-26T07:12:14.416Z,14.00
2019-05-26T07:14:42.872Z,14.20
2019-05-26T07:17:11.623Z,14.30
2019-05-26T07:19:40.408Z,14.40
2019-05-26T07:22:08.853Z,14.50
2019-05-26T07:24:37.318Z,14.30
2019-05-26T07:27:06.010Z,14.60
2019-05-26T07:29:34.866Z,14.60
2019-05-26T07:32:03.848Z,14.50
2019-05-26T07:34:32.561Z,14.50
2019-05-26T07:37:01.005Z,14.50
2019-05-26T07:39:29.529Z,14.70
2019-05-26T07:42:09.306Z,14.90
2019-05-26T07:44:28.201Z,15.00
2019-05-26T07:46:56.695Z,15.20
2019-05-26T07:49:25.179Z,15.30
2019-05-26T07:51:53.860Z,15.40
2019-05-26T07:54:25.577Z,15.40
2019-05-26T07:56:53.054Z,15.50
2019-05-26T07:59:21.536Z,15.50
2019-05-26T08:01:49.992Z,15.60
2019-05-26T08:04:18.452Z,15.50
2019-05-26T08:06:46.912Z,15.20
2019-05-26T08:09:15.685Z,15.30
2019-05-26T08:11:44.149Z,15.10
2019-05-26T08:14:12.576Z,15.00
2019-05-26T08:16:41.043Z,15.10
2019-05-26T08:19:09.481Z,15.10
2019-05-26T08:21:37.964Z,15.10
2019-05-26T08:24:06.766Z,15.30
2019-05-26T08:26:35.556Z,15.40
2019-05-26T08:29:04.029Z,15.40
2019-05-26T08:31:32.482Z,15.40
2019-05-26T08:34:01.326Z,15.40
2019-05-26T08:36:30.197Z,15.40
2019-05-26T08:38:58.652Z,15.40
2019-05-26T08:41:27.112Z,15.70
2019-05-26T08:43:56.017Z,15.80
2019-05-26T08:46:24.467Z,15.90
2019-05-26T08:48:53.526Z,15.90
2019-05-26T08:51:22.311Z,16.00
2019-05-26T08:53:51.097Z,16.00
2019-05-26T08:56:19.559Z,16.00
2019-05-26T08:58:48.372Z,16.10
2019-05-26T09:01:16.833Z,16.20
2019-05-26T09:03:45.276Z,16.30
2019-05-26T09:06:13.724Z,16.30
2019-05-26T09:08:42.162Z,16.40
2019-05-26T09:11:10.617Z,16.50
2019-05-26T09:13:39.066Z,16.60
2019-05-26T09:16:07.842Z,16.60
2019-05-26T09:18:36.632Z,16.50
2019-05-26T09:21:05.081Z,16.50
2019-05-26T09:23:33.538Z,16.50
2019-05-26T09:26:02.051Z,16.40
2019-05-26T09:28:30.508Z,16.50
2019-05-26T09:30:58.959Z,16.70
2019-05-26T09:33:27.442Z,16.80
2019-05-26T09:35:55.892Z,16.80
2019-05-26T09:38:24.369Z,16.90
2019-05-26T09:40:53.184Z,16.90
2019-05-26T09:43:21.715Z,17.10
2019-05-26T09:45:50.415Z,17.40
2019-05-26T09:48:19.138Z,17.60
2019-05-26T09:50:47.905Z,17.70
2019-05-26T09:53:17.128Z,17.80
2019-05-26T09:55:45.590Z,17.90
2019-05-26T09:58:14.043Z,17.90
2019-05-26T10:00:44.382Z,17.90
2019-05-26T10:03:13.560Z,18.00
2019-05-26T10:05:42.591Z,17.90
2019-05-26T10:08:11.031Z,18.00
2019-05-26T10:10:39.505Z,18.10
2019-05-26T10:13:07.936Z,18.10
2019-05-26T10:15:36.377Z,18.20
2019-05-26T10:18:05.176Z,18.10
2019-05-26T10:20:33.624Z,18.20
2019-05-26T10:23:02.078Z,18.40
2019-05-26T10:25:30.516Z,18.40
2019-05-26T10:27:59.316Z,18.40
2019-05-26T10:30:27.762Z,18.50
2019-05-26T10:32:56.214Z,18.50
2019-05-26T10:35:24.645Z,18.40
2019-05-26T10:37:53.091Z,18.50
2019-05-26T10:40:21.551Z,18.60
2019-05-26T10:42:50.245Z,18.60
2019-05-26T10:45:18.886Z,18.50
2019-05-26T10:47:47.325Z,18.60
2019-05-26T10:50:17.481Z,18.70
2019-05-26T10:52:45.900Z,18.70
2019-05-26T10:55:14.789Z,18.80
2019-05-26T10:57:43.471Z,19.00
2019-05-26T11:00:12.175Z,19.20
2019-05-26T11:02:40.610Z,19.40
2019-05-26T11:05:10.036Z,19.40
2019-05-26T11:07:38.489Z,19.30
2019-05-26T11:10:08.030Z,19.30
2019-05-26T11:12:36.546Z,19.50
2019-05-26T11:15:09.681Z,19.50
2019-05-26T11:17:38.212Z,19.40
2019-05-26T11:20:11.186Z,19.40
2019-05-26T11:22:39.650Z,19.50
2019-05-26T11:25:08.423Z,19.40
2019-05-26T11:27:36.875Z,19.60
2019-05-26T11:30:11.182Z,19.60
2019-05-26T11:32:39.920Z,19.80
2019-05-26T11:35:09.810Z,19.90
2019-05-26T11:37:38.263Z,20.10
2019-05-26T11:40:07.797Z,20.00
2019-05-26T11:42:36.402Z,20.20
2019-05-26T11:45:07.437Z,20.20
2019-05-26T11:47:36.236Z,20.30
2019-05-26T11:50:08.095Z,20.40
2019-05-26T11:52:36.584Z,20.50
2019-05-26T11:55:06.940Z,20.60
2019-05-26T11:57:36.646Z,20.60
2019-05-26T12:00:08.393Z,20.70
2019-05-26T12:02:37.405Z,20.90
2019-05-26T12:05:07.568Z,21.10
2019-05-26T12:07:36.580Z,21.10
2019-05-26T12:10:08.321Z,21.00
2019-05-26T12:12:36.836Z,21.00
2019-05-26T12:15:12.659Z,21.20
2019-05-26T12:17:41.089Z,21.20
2019-05-26T12:20:11.023Z,21.30
2019-05-26T12:22:39.460Z,21.30
2019-05-26T12:25:09.292Z,21.30
2019-05-26T12:27:38.029Z,21.10
2019-05-26T12:30:07.837Z,21.00
2019-05-26T12:32:36.636Z,21.40
2019-05-26T12:35:08.664Z,21.60
2019-05-26T12:37:37.093Z,21.60
2019-05-26T12:40:08.023Z,21.50
2019-05-26T12:42:36.541Z,21.40
2019-05-26T12:45:08.759Z,21.10
2019-05-26T12:47:37.281Z,21.30
2019-05-26T12:50:07.821Z,21.40
2019-05-26T12:52:36.578Z,21.70
2019-05-26T12:55:09.468Z,21.90
2019-05-26T12:57:38.747Z,21.80
2019-05-26T13:00:09.122Z,21.80
2019-05-26T13:02:37.867Z,21.70
2019-05-26T13:05:08.803Z,21.80
2019-05-26T13:07:37.396Z,22.00
2019-05-26T13:10:07.185Z,22.00
2019-05-26T13:12:35.925Z,22.10
2019-05-26T13:15:09.810Z,22.20
2019-05-26T13:17:38.578Z,22.10
2019-05-26T13:20:08.932Z,22.00
2019-05-26T13:22:37.688Z,21.70
2019-05-26T13:25:08.995Z,21.70
2019-05-26T13:27:37.434Z,21.90
2019-05-26T13:30:12.949Z,22.00
2019-05-26T13:32:41.631Z,21.60
2019-05-26T13:35:10.722Z,22.10
2019-05-26T13:37:39.421Z,22.40
2019-05-26T13:40:09.515Z,22.30
2019-05-26T13:42:38.211Z,22.80
2019-05-26T13:45:21.719Z,23.50
2019-05-26T13:47:40.748Z,24.80
2019-05-26T13:50:10.334Z,26.40
2019-05-26T13:52:38.907Z,27.40
2019-05-26T13:55:09.897Z,28.20
2019-05-26T13:57:38.350Z,27.60
2019-05-26T14:00:09.057Z,28.60
2019-05-26T14:02:37.675Z,29.90
2019-05-26T14:05:08.519Z,29.60
2019-05-26T14:07:36.978Z,30.60
2019-05-26T14:10:07.673Z,30.90
2019-05-26T14:12:36.205Z,30.60
2019-05-26T14:15:09.514Z,28.80
2019-05-26T14:17:39.372Z,27.30
2019-05-26T14:20:09.135Z,26.10
2019-05-26T14:22:37.646Z,25.00
2019-05-26T14:25:07.035Z,24.10
2019-05-26T14:27:35.495Z,23.70
2019-05-26T14:30:06.328Z,23.30
2019-05-26T14:32:34.853Z,23.20
2019-05-26T14:35:04.433Z,23.00
2019-05-26T14:37:32.893Z,22.80
2019-05-26T14:40:01.330Z,22.80
2019-05-26T14:42:30.041Z,22.80
2019-05-26T14:44:58.521Z,23.10
2019-05-26T14:47:26.955Z,23.20
2019-05-26T14:49:55.693Z,23.20
2019-05-26T14:52:24.185Z,23.30
2019-05-26T14:54:52.647Z,23.60
2019-05-26T14:57:21.079Z,24.70
2019-05-26T14:59:49.791Z,25.90
2019-05-26T15:02:18.312Z,26.00
2019-05-26T15:04:46.775Z,25.60
2019-05-26T15:07:15.200Z,25.00
2019-05-26T15:09:43.947Z,24.40
2019-05-26T15:12:12.369Z,24.00
2019-05-26T15:14:40.811Z,23.80
2019-05-26T15:17:09.271Z,23.60
2019-05-26T15:19:37.974Z,23.50
2019-05-26T15:22:06.416Z,23.60
2019-05-26T15:24:35.100Z,23.80
2019-05-26T15:27:03.617Z,23.80
2019-05-26T15:29:32.306Z,23.70
2019-05-26T15:32:02.764Z,23.50
2019-05-26T15:34:32.456Z,23.70
2019-05-26T15:37:01.248Z,24.30
2019-05-26T15:39:29.945Z,24.50
2019-05-26T15:41:58.377Z,24.50
2019-05-26T15:44:27.095Z,24.20
2019-05-26T15:46:55.521Z,23.80
2019-05-26T15:49:24.050Z,23.40
2019-05-26T15:51:52.486Z,23.10
2019-05-26T15:54:21.330Z,22.90
2019-05-26T15:56:49.769Z,22.90
2019-05-26T15:59:18.221Z,22.80
2019-05-26T16:01:47.662Z,22.50
2019-05-26T16:04:16.506Z,22.50
2019-05-26T16:06:45.209Z,22.30
2019-05-26T16:09:13.921Z,22.10
2019-05-26T16:11:43.557Z,22.10
2019-05-26T16:14:12.515Z,22.00
2019-05-26T16:16:41.981Z,21.80
2019-05-26T16:19:10.694Z,21.60
2019-05-26T16:21:39.149Z,21.60
2019-05-26T16:24:07.927Z,21.60
2019-05-26T16:26:36.389Z,21.60
2019-05-26T16:29:05.396Z,21.50
2019-05-26T16:31:33.918Z,21.50
2019-05-26T16:34:02.386Z,21.40
2019-05-26T16:36:30.848Z,21.50
2019-05-26T16:38:59.301Z,21.40
2019-05-26T16:41:28.042Z,21.20
2019-05-26T16:43:56.475Z,21.20
2019-05-26T16:46:24.909Z,21.10
2019-05-26T16:48:54.787Z,21.00
2019-05-26T16:51:23.538Z,21.00
2019-05-26T16:53:52.237Z,20.80
2019-05-26T16:56:20.688Z,20.80
2019-05-26T16:58:49.162Z,20.70
2019-05-26T17:01:17.877Z,20.60
2019-05-26T17:03:46.580Z,20.60
2019-05-26T17:06:15.280Z,20.50
2019-05-26T17:08:43.739Z,20.50
2019-05-26T17:11:12.183Z,20.40
2019-05-26T17:13:40.921Z,20.50
2019-05-26T17:16:09.348Z,20.30
2019-05-26T17:18:38.055Z,20.20
2019-05-26T17:21:06.836Z,20.20
2019-05-26T17:23:35.265Z,20.20
2019-05-26T17:26:03.794Z,20.10
2019-05-26T17:28:32.485Z,20.10
2019-05-26T17:31:01.184Z,20.10
2019-05-26T17:33:29.622Z,20.10
2019-05-26T17:35:58.347Z,20.00
2019-05-26T17:38:26.783Z,20.00
2019-05-26T17:40:55.845Z,20.00
2019-05-26T17:43:24.554Z,19.90
2019-05-26T17:45:53.240Z,19.80
2019-05-26T17:48:21.698Z,19.90
2019-05-26T17:50:50.121Z,19.90
2019-05-26T17:53:18.586Z,19.70
2019-05-26T17:55:47.021Z,19.80
2019-05-26T17:58:15.476Z,19.80
2019-05-26T18:00:44.176Z,19.80
2019-05-26T18:03:12.873Z,19.80
2019-05-26T18:05:41.372Z,19.90
2019-05-26T18:08:09.824Z,19.90
2019-05-26T18:10:38.553Z,19.90
2019-05-26T18:13:07.021Z,19.80
2019-05-26T18:15:35.723Z,19.80
2019-05-26T18:18:04.346Z,19.70
2019-05-26T18:20:32.838Z,19.60
2019-05-26T18:23:01.282Z,19.30
2019-05-26T18:25:29.733Z,19.30
2019-05-26T18:27:58.422Z,19.20
2019-05-26T18:30:26.873Z,19.10
2019-05-26T18:32:55.564Z,19.00
2019-05-26T18:35:24.276Z,18.80
2019-05-26T18:37:53.291Z,18.80
2019-05-26T18:40:21.992Z,18.70
2019-05-26T18:42:50.430Z,18.60
2019-05-26T18:45:19.212Z,18.40
2019-05-26T18:48:01.748Z,18.40
2019-05-26T18:50:18.349Z,18.30
2019-05-26T18:52:47.047Z,18.10
2019-05-26T18:55:15.640Z,18.00
2019-05-26T18:57:44.105Z,17.90
2019-05-26T19:00:12.785Z,17.80
2019-05-26T19:02:41.237Z,17.70
2019-05-26T19:05:09.815Z,17.60
2019-05-26T19:07:38.531Z,17.50
2019-05-26T19:10:07.605Z,17.50
2019-05-26T19:12:36.063Z,17.40
2019-05-26T19:15:06.806Z,17.30
2019-05-26T19:17:35.270Z,17.20
2019-05-26T19:20:15.932Z,17.10
2019-05-26T19:22:37.941Z,17.00
2019-05-26T19:25:07.014Z,16.90
2019-05-26T19:27:35.742Z,16.80
2019-05-26T19:30:08.216Z,16.70
2019-05-26T19:32:37.089Z,16.70
2019-05-26T19:35:07.477Z,16.60
2019-05-26T19:37:36.180Z,16.50
2019-05-26T19:40:08.454Z,16.40
2019-05-26T19:42:36.888Z,16.40
2019-05-26T19:45:08.803Z,16.40
2019-05-26T19:47:37.312Z,16.30
2019-05-26T19:50:07.703Z,16.20
2019-05-26T19:52:36.152Z,16.20
2019-05-26T19:55:06.915Z,16.10
2019-05-26T19:57:35.350Z,16.10
2019-05-26T20:00:09.621Z,16.00
2019-05-26T20:02:38.612Z,15.90
2019-05-26T20:05:09.058Z,15.90
2019-05-26T20:07:37.493Z,15.90
2019-05-26T20:10:08.250Z,15.90
2019-05-26T20:12:36.685Z,15.90
2019-05-26T20:15:10.672Z,15.90
2019-05-26T20:17:39.197Z,15.90
2019-05-26T20:20:08.965Z,15.90
2019-05-26T20:22:37.755Z,15.80
2019-05-26T20:25:08.404Z,15.70
2019-05-26T20:27:36.857Z,15.70
2019-05-26T20:30:07.730Z,15.70
2019-05-26T20:32:36.786Z,15.70
2019-05-26T20:35:07.325Z,15.60
2019-05-26T20:37:35.799Z,15.50
2019-05-26T20:40:09.052Z,15.40
2019-05-26T20:42:37.860Z,15.40
2019-05-26T20:45:08.292Z,15.40
2019-05-26T20:47:36.725Z,15.30
2019-05-26T20:50:10.180Z,15.20
2019-05-26T20:52:38.620Z,15.00
2019-05-26T20:55:08.115Z,15.00
2019-05-26T20:57:36.541Z,15.00
2019-05-26T21:00:09.835Z,14.90
2019-05-26T21:02:38.938Z,14.90
2019-05-26T21:05:08.533Z,14.70
2019-05-26T21:07:37.110Z,14.70
2019-05-26T21:10:06.436Z,14.60
2019-05-26T21:12:35.201Z,14.50
2019-05-26T21:15:05.166Z,14.50
2019-05-26T21:17:33.612Z,14.50
2019-05-26T21:20:02.384Z,14.60
2019-05-26T21:22:30.834Z,14.60
2019-05-26T21:24:59.547Z,14.60
2019-05-26T21:27:28.081Z,14.50
2019-05-26T21:29:59.606Z,14.60
2019-05-26T21:32:31.293Z,14.60
2019-05-26T21:34:58.497Z,14.60
2019-05-26T21:37:26.956Z,14.50
2019-05-26T21:39:55.393Z,14.30
2019-05-26T21:42:23.866Z,14.10
2019-05-26T21:44:52.315Z,14.00
2019-05-26T21:47:20.750Z,14.00
2019-05-26T21:49:49.262Z,13.70
2019-05-26T21:52:17.967Z,13.80
2019-05-26T21:54:46.423Z,14.00
2019-05-26T21:57:14.854Z,13.90
2019-05-26T21:59:43.326Z,13.80
2019-05-26T22:02:11.761Z,13.80
2019-05-26T22:04:40.217Z,14.00
2019-05-26T22:07:08.663Z,14.20
2019-05-26T22:09:37.137Z,14.20
2019-05-26T22:12:05.557Z,14.20
2019-05-26T22:14:34.240Z,14.30
2019-05-26T22:17:02.997Z,14.40
2019-05-26T22:19:31.428Z,14.50
2019-05-26T22:21:59.887Z,14.50
2019-05-26T22:24:28.633Z,14.50
2019-05-26T22:26:57.416Z,14.50
2019-05-26T22:29:25.848Z,14.60
2019-05-26T22:31:54.300Z,14.60
2019-05-26T22:34:23.070Z,14.50
2019-05-26T22:36:51.865Z,14.40
2019-05-26T22:39:20.291Z,14.30
2019-05-26T22:41:48.996Z,14.20
2019-05-26T22:44:17.712Z,14.30
2019-05-26T22:46:46.245Z,14.40
2019-05-26T22:49:14.686Z,14.30
2019-05-26T22:51:43.154Z,14.20
2019-05-26T22:54:11.722Z,14.00
2019-05-26T22:56:40.176Z,13.90
2019-05-26T22:59:08.610Z,13.80
2019-05-26T23:01:37.132Z,13.80
2019-05-26T23:04:05.581Z,13.70
2019-05-26T23:06:34.019Z,13.80
2019-05-26T23:09:02.828Z,13.90
2019-05-26T23:11:31.616Z,13.90
2019-05-26T23:14:00.408Z,13.80
2019-05-26T23:16:28.908Z,13.80
2019-05-26T23:18:57.388Z,13.80
2019-05-26T23:21:26.174Z,13.70
2019-05-26T23:23:54.938Z,13.70
2019-05-26T23:26:23.735Z,13.60
2019-05-26T23:28:52.173Z,13.60
2019-05-26T23:31:20.655Z,13.60
2019-05-26T23:33:49.491Z,13.60
2019-05-26T23:36:18.269Z,13.60
2019-05-26T23:38:47.062Z,13.70
2019-05-26T23:41:15.525Z,13.60
2019-05-26T23:43:44.337Z,13.40
2019-05-26T23:46:12.774Z,13.20
2019-05-26T23:48:41.499Z,13.30
2019-05-26T23:51:09.940Z,13.30
2019-05-26T23:53:38.665Z,13.30
2019-05-26T23:56:07.097Z,13.20
2019-05-26T23:58:35.835Z,13.10
